Forest, Louisiana
Current Conditions -  °F | °C
As of 7:15 PM on Monday 22 Dec 2014 (Local Time) from KBQP Reporting Station
Scattered Clouds Scattered Clouds  
Wind Chill: 60°   Ceiling: Unl
Heat Index: 60°   Visibility: 7mi
Dew Point: 58°   Wind: 0mph
Humidity: 94%   Direction: NA
Pressure: 29.63"   Gusts: NA
Location:  32.79°N, 91.41°W
Report Text: KBQP 230115Z AUTO 00000KT 7SM SCT022 SCT028 SCT036 15/14 A2963 RMK AO2 T01540144
Loading
Personal Weather Stations






























Interactive Weather Map New forecast layout! Learn more

10-Day Weather Forecast

Advertisements
Track Severe Weather on mobile